createdAt,value
2018-01-16T00:02:23.507Z,98865.87
2018-01-16T00:04:51.236Z,98872.34
2018-01-16T00:07:18.919Z,98863.86
2018-01-16T00:09:46.667Z,98869.91
2018-01-16T00:12:14.347Z,98856.05
2018-01-16T00:14:42.081Z,98850.06
2018-01-16T00:17:09.770Z,98845.25
2018-01-16T00:19:37.544Z,98853.49
2018-01-16T00:22:05.250Z,98836.73
2018-01-16T00:24:32.952Z,98815.95
2018-01-16T00:27:00.635Z,98819.46
2018-01-16T00:29:28.367Z,98823.52
2018-01-16T00:31:56.055Z,98814.93
2018-01-16T00:34:23.789Z,98802.10
2018-01-16T00:36:51.483Z,98792.55
2018-01-16T00:39:19.160Z,98787.72
2018-01-16T00:41:46.840Z,98807.05
2018-01-16T00:44:14.588Z,98803.81
2018-01-16T00:46:42.315Z,98785.67
2018-01-16T00:49:10.050Z,98778.98
2018-01-16T00:51:37.725Z,98765.30
2018-01-16T00:54:05.456Z,98768.69
2018-01-16T00:56:33.087Z,98775.27
2018-01-16T00:59:00.806Z,98753.18
2018-01-16T01:01:28.421Z,98753.73
2018-01-16T01:03:56.100Z,98774.04
2018-01-16T01:06:23.731Z,98780.84
2018-01-16T01:08:51.472Z,98757.13
2018-01-16T01:11:19.105Z,98763.92
2018-01-16T01:13:46.831Z,98747.65
2018-01-16T01:16:14.518Z,98742.55
2018-01-16T01:18:42.200Z,98738.20
2018-01-16T01:21:09.871Z,98731.06
2018-01-16T01:23:37.551Z,98737.71
2018-01-16T01:26:05.219Z,98737.48
2018-01-16T01:28:32.921Z,98732.70
2018-01-16T01:31:00.599Z,98728.64
2018-01-16T01:33:28.291Z,98726.30
2018-01-16T01:35:55.966Z,98727.59
2018-01-16T01:38:23.663Z,98723.97
2018-01-16T01:40:51.395Z,98730.77
2018-01-16T01:43:19.088Z,98742.91
2018-01-16T01:45:46.837Z,98737.81
2018-01-16T01:48:14.454Z,98736.52
2018-01-16T01:50:42.190Z,98726.55
2018-01-16T01:53:09.873Z,98741.78
2018-01-16T01:55:37.548Z,98733.83
2018-01-16T01:58:05.251Z,98730.29
2018-01-16T02:00:32.988Z,98734.41
2018-01-16T02:03:00.625Z,98718.46
2018-01-16T02:05:28.368Z,98722.81
2018-01-16T02:07:55.996Z,98710.20
2018-01-16T02:10:23.727Z,98716.86
2018-01-16T02:12:51.420Z,98717.25
2018-01-16T02:15:19.146Z,98714.64
2018-01-16T02:17:46.838Z,98718.47
2018-01-16T02:20:14.505Z,98713.66
2018-01-16T02:22:42.184Z,98704.63
2018-01-16T02:25:09.908Z,98711.73
2018-01-16T02:27:37.589Z,98705.33
2018-01-16T02:30:05.316Z,98702.34
2018-01-16T02:32:33.011Z,98705.66
2018-01-16T02:35:00.750Z,98702.25
2018-01-16T02:37:28.432Z,98700.72
2018-01-16T02:39:56.100Z,98707.19
2018-01-16T02:42:23.778Z,98691.75
2018-01-16T02:44:51.479Z,98696.91
2018-01-16T02:47:19.195Z,98696.91
2018-01-16T02:49:46.942Z,98702.48
2018-01-16T02:52:14.647Z,98707.13
2018-01-16T02:54:42.407Z,98698.61
2018-01-16T02:57:10.086Z,98698.88
2018-01-16T02:59:37.766Z,98704.38
2018-01-16T03:02:06.304Z,98701.78
2018-01-16T03:04:33.989Z,98698.28
2018-01-16T03:07:01.719Z,98691.72
2018-01-16T03:09:29.347Z,98692.30
2018-01-16T03:11:57.096Z,98690.91
2018-01-16T03:14:24.796Z,98684.18
2018-01-16T03:16:52.581Z,98684.73
2018-01-16T03:19:20.295Z,98682.58
2018-01-16T03:21:48.020Z,98684.18
2018-01-16T03:24:15.660Z,98680.45
2018-01-16T03:26:43.398Z,98685.70
2018-01-16T03:29:11.078Z,98681.51
2018-01-16T03:31:38.816Z,98677.31
2018-01-16T03:34:06.467Z,98668.23
2018-01-16T03:36:34.179Z,98669.77
2018-01-16T03:39:01.855Z,98666.53
2018-01-16T03:41:29.581Z,98671.63
2018-01-16T03:43:57.256Z,98678.52
2018-01-16T03:46:24.983Z,98682.64
2018-01-16T03:48:52.673Z,98678.85
2018-01-16T03:51:20.354Z,98678.59
2018-01-16T03:53:48.047Z,98677.41
2018-01-16T03:56:15.791Z,98675.22
2018-01-16T03:58:43.476Z,98667.02
2018-01-16T04:01:11.199Z,98668.88
2018-01-16T04:03:38.886Z,98683.94
2018-01-16T04:06:06.542Z,98668.96
2018-01-16T04:08:34.231Z,98665.47
2018-01-16T04:11:01.911Z,98661.42
2018-01-16T04:13:29.584Z,98660.37
2018-01-16T04:15:57.319Z,98662.89
2018-01-16T04:18:25.007Z,98653.69
2018-01-16T04:20:52.673Z,98655.55
2018-01-16T04:23:20.286Z,98659.02
2018-01-16T04:25:48.011Z,98663.71
2018-01-16T04:28:15.702Z,98653.11
2018-01-16T04:30:43.453Z,98655.16
2018-01-16T04:33:11.139Z,98643.27
2018-01-16T04:35:38.887Z,98647.29
2018-01-16T04:38:06.511Z,98644.54
2018-01-16T04:40:34.198Z,98642.13
2018-01-16T04:43:01.943Z,98639.44
2018-01-16T04:45:29.614Z,98647.62
2018-01-16T04:47:57.336Z,98636.30
2018-01-16T04:50:25.016Z,98638.45
2018-01-16T04:52:52.743Z,98632.73
2018-01-16T04:55:20.363Z,98628.28
2018-01-16T04:57:48.096Z,98635.48
2018-01-16T05:00:15.795Z,98626.84
2018-01-16T05:02:43.463Z,98629.18
2018-01-16T05:05:11.151Z,98632.10
2018-01-16T05:07:38.884Z,98630.26
2018-01-16T05:10:06.585Z,98637.14
2018-01-16T05:12:34.312Z,98641.83
2018-01-16T05:15:01.989Z,98643.69
2018-01-16T05:17:29.730Z,98645.95
2018-01-16T05:19:57.450Z,98643.03
2018-01-16T05:22:25.172Z,98640.84
2018-01-16T05:24:52.857Z,98640.92
2018-01-16T05:27:20.576Z,98646.33
2018-01-16T05:29:48.266Z,98644.47
2018-01-16T05:32:15.997Z,98642.45
2018-01-16T05:34:43.677Z,98644.81
2018-01-16T05:37:11.417Z,98643.69
2018-01-16T05:39:39.032Z,98645.47
2018-01-16T05:42:06.771Z,98641.89
2018-01-16T05:44:34.469Z,98643.27
2018-01-16T05:47:02.229Z,98644.31
2018-01-16T05:49:29.970Z,98637.70
2018-01-16T05:51:57.747Z,98630.91
2018-01-16T05:54:25.447Z,98638.02
2018-01-16T05:56:53.224Z,98632.66
2018-01-16T05:59:20.854Z,98634.44
2018-01-16T06:01:48.551Z,98631.25
2018-01-16T06:04:16.177Z,98637.16
2018-01-16T06:06:43.852Z,98633.59
2018-01-16T06:09:11.487Z,98645.03
2018-01-16T06:11:39.164Z,98646.48
2018-01-16T06:14:06.812Z,98644.80
2018-01-16T06:16:34.499Z,98646.33
2018-01-16T06:19:02.121Z,98639.16
2018-01-16T06:21:29.767Z,98640.20
2018-01-16T06:23:57.445Z,98646.03
2018-01-16T06:26:25.076Z,98637.20
2018-01-16T06:28:52.760Z,98634.08
2018-01-16T06:31:20.380Z,98628.03
2018-01-16T06:33:48.057Z,98630.70
2018-01-16T06:36:15.681Z,98628.69
2018-01-16T06:38:43.342Z,98623.52
2018-01-16T06:41:10.959Z,98624.88
2018-01-16T06:43:38.624Z,98630.77
2018-01-16T06:46:06.249Z,98630.84
2018-01-16T06:48:33.927Z,98622.42
2018-01-16T06:51:01.600Z,98634.23
2018-01-16T06:53:29.270Z,98626.69
2018-01-16T06:55:56.903Z,98624.50
2018-01-16T06:58:24.597Z,98615.29
2018-01-16T07:00:52.274Z,98623.31
2018-01-16T07:03:19.950Z,98619.04
2018-01-16T07:05:47.644Z,98623.91
2018-01-16T07:08:15.319Z,98629.73
2018-01-16T07:13:15.268Z,98630.65
2018-01-16T07:15:42.956Z,98630.34
2018-01-16T07:18:10.708Z,98634.23
2018-01-16T07:20:38.454Z,98644.73
2018-01-16T07:23:06.208Z,98639.88
2018-01-16T07:25:33.844Z,98631.79
2018-01-16T07:28:01.588Z,98632.11
2018-01-16T07:30:29.267Z,98633.22
2018-01-16T07:32:57.014Z,98639.05
2018-01-16T07:35:24.698Z,98642.63
2018-01-16T07:37:52.381Z,98638.23
2018-01-16T07:40:20.043Z,98639.16
2018-01-16T07:42:47.736Z,98633.80
2018-01-16T07:45:15.358Z,98634.44
2018-01-16T07:47:46.593Z,98639.86
2018-01-16T07:50:14.244Z,98637.77
2018-01-16T07:52:41.932Z,98631.77
2018-01-16T07:55:09.561Z,98636.31
2018-01-16T07:57:37.303Z,98630.88
2018-01-16T08:00:04.988Z,98630.95
2018-01-16T08:02:32.622Z,98633.95
2018-01-16T08:05:00.364Z,98635.09
2018-01-16T08:07:28.074Z,98633.85
2018-01-16T08:09:55.887Z,98635.95
2018-01-16T08:12:23.524Z,98632.72
2018-01-16T08:14:51.270Z,98634.48
2018-01-16T08:17:18.995Z,98633.91
2018-01-16T08:19:46.786Z,98635.77
2018-01-16T08:22:14.461Z,98634.94
2018-01-16T08:24:42.197Z,98633.95
2018-01-16T08:27:09.900Z,98633.05
2018-01-16T08:29:37.639Z,98630.91
2018-01-16T08:32:05.326Z,98638.86
2018-01-16T08:34:33.054Z,98634.48
2018-01-16T08:37:00.729Z,98639.67
2018-01-16T08:39:28.456Z,98642.83
2018-01-16T08:41:56.123Z,98635.38
2018-01-16T08:44:23.882Z,98641.12
2018-01-16T08:46:51.572Z,98639.75
2018-01-16T08:49:19.298Z,98636.44
2018-01-16T08:51:47.028Z,98632.38
2018-01-16T08:54:14.796Z,98630.91
2018-01-16T08:56:42.882Z,98625.85
2018-01-16T08:59:10.606Z,98631.56
2018-01-16T09:01:38.318Z,98629.75
2018-01-16T09:04:06.086Z,98637.05
2018-01-16T09:06:33.783Z,98636.96
2018-01-16T09:09:01.529Z,98626.98
2018-01-16T09:11:29.223Z,98629.33
2018-01-16T09:13:56.997Z,98628.80
2018-01-16T09:16:24.709Z,98632.34
2018-01-16T09:18:52.466Z,98624.79
2018-01-16T09:21:20.208Z,98631.09
2018-01-16T09:23:47.948Z,98628.17
2018-01-16T09:26:15.633Z,98628.11
2018-01-16T09:28:43.386Z,98629.33
2018-01-16T09:31:11.065Z,98626.27
2018-01-16T09:33:38.854Z,98627.14
2018-01-16T09:36:06.493Z,98623.78
2018-01-16T09:38:34.237Z,98622.20
2018-01-16T09:41:01.923Z,98619.69
2018-01-16T09:43:29.598Z,98617.45
2018-01-16T09:45:57.332Z,98613.09
2018-01-16T09:48:24.999Z,98611.28
2018-01-16T09:50:52.763Z,98622.19
2018-01-16T09:53:20.464Z,98618.58
2018-01-16T09:55:48.205Z,98616.79
2018-01-16T09:58:15.879Z,98617.31
2018-01-16T10:00:43.624Z,98613.84
2018-01-16T10:03:11.322Z,98614.93
2018-01-16T10:05:39.015Z,98614.30
2018-01-16T10:08:06.691Z,98612.72
2018-01-16T10:10:34.430Z,98619.05
2018-01-16T10:13:02.137Z,98619.77
2018-01-16T10:15:29.861Z,98619.22
2018-01-16T10:17:57.562Z,98622.27
2018-01-16T10:20:25.363Z,98612.98
2018-01-16T10:22:53.050Z,98610.80
2018-01-16T10:25:20.787Z,98616.72
2018-01-16T10:27:48.482Z,98606.64
2018-01-16T10:30:16.214Z,98605.87
2018-01-16T10:32:43.911Z,98599.84
2018-01-16T10:35:11.638Z,98593.59
2018-01-16T10:37:39.349Z,98590.69
2018-01-16T10:40:07.125Z,98590.02
2018-01-16T10:42:34.824Z,98589.20
2018-01-16T10:45:02.561Z,98588.74
2018-01-16T10:47:30.256Z,98587.73
2018-01-16T10:49:58.007Z,98582.06
2018-01-16T10:52:25.692Z,98578.43
2018-01-16T10:54:53.409Z,98585.34
2018-01-16T10:57:21.103Z,98569.99
2018-01-16T10:59:48.862Z,98567.75
2018-01-16T11:02:16.551Z,98574.03
2018-01-16T11:04:44.294Z,98567.42
2018-01-16T11:07:11.993Z,98566.88
2018-01-16T11:09:39.728Z,98577.05
2018-01-16T11:12:07.410Z,98581.14
2018-01-16T11:14:35.136Z,98577.53
2018-01-16T11:17:02.824Z,98584.73
2018-01-16T11:19:30.597Z,98592.89
2018-01-16T11:21:58.279Z,98585.22
2018-01-16T11:24:25.995Z,98593.40
2018-01-16T11:26:53.790Z,98588.98
2018-01-16T11:29:21.496Z,98586.03
2018-01-16T11:31:49.223Z,98580.48
2018-01-16T11:34:17.011Z,98581.76
2018-01-16T11:36:44.777Z,98575.53
2018-01-16T11:39:12.474Z,98581.23
2018-01-16T11:41:40.218Z,98584.64
2018-01-16T11:44:07.905Z,98580.86
2018-01-16T11:46:35.651Z,98573.19
2018-01-16T11:49:03.348Z,98576.30
2018-01-16T11:51:31.111Z,98568.84
2018-01-16T11:53:58.796Z,98570.98
2018-01-16T11:56:26.529Z,98564.41
2018-01-16T11:58:54.223Z,98556.38
2018-01-16T12:01:21.987Z,98556.69
2018-01-16T12:03:49.766Z,98554.84
2018-01-16T12:06:17.518Z,98555.60
2018-01-16T12:08:45.271Z,98548.97
2018-01-16T12:11:12.979Z,98548.70
2018-01-16T12:13:40.723Z,98542.25
2018-01-16T12:16:08.421Z,98538.00
2018-01-16T12:18:36.109Z,98541.26
2018-01-16T12:21:03.890Z,98541.00
2018-01-16T12:23:31.607Z,98539.02
2018-01-16T12:25:59.339Z,98540.58
2018-01-16T12:28:27.026Z,98536.73
2018-01-16T12:30:54.695Z,98541.53
2018-01-16T12:33:22.381Z,98537.30
2018-01-16T12:35:50.141Z,98532.86
2018-01-16T12:38:17.943Z,98522.59
2018-01-16T12:40:45.597Z,98533.38
2018-01-16T12:43:13.310Z,98524.78
2018-01-16T12:45:40.992Z,98527.48
2018-01-16T12:48:08.662Z,98524.78
2018-01-16T12:50:36.351Z,98521.92
2018-01-16T12:53:03.971Z,98520.70
2018-01-16T12:55:31.688Z,98515.33
2018-01-16T12:57:59.394Z,98510.83
2018-01-16T13:00:27.136Z,98510.47
2018-01-16T13:02:54.828Z,98510.99
2018-01-16T13:05:22.552Z,98504.04
2018-01-16T13:07:50.284Z,98506.23
2018-01-16T13:10:18.073Z,98502.41
2018-01-16T13:12:45.760Z,98503.11
2018-01-16T13:15:13.586Z,98507.46
2018-01-16T13:17:41.270Z,98507.67
2018-01-16T13:20:09.007Z,98507.12
2018-01-16T13:22:36.624Z,98505.63
2018-01-16T13:25:04.282Z,98514.27
2018-01-16T13:27:31.963Z,98513.80
2018-01-16T13:29:59.708Z,98523.55
2018-01-16T13:32:27.402Z,98520.45
2018-01-16T13:34:55.140Z,98522.83
2018-01-16T13:37:22.836Z,98517.13
2018-01-16T13:39:50.518Z,98522.54
2018-01-16T13:42:18.160Z,98524.13
2018-01-16T13:44:45.887Z,98521.97
2018-01-16T13:47:13.643Z,98527.60
2018-01-16T13:49:41.448Z,98520.24
2018-01-16T13:52:09.187Z,98522.39
2018-01-16T13:54:36.890Z,98522.22
2018-01-16T13:57:04.686Z,98519.26
2018-01-16T13:59:32.385Z,98519.11
2018-01-16T14:02:00.152Z,98525.64
2018-01-16T14:04:27.866Z,98528.66
2018-01-16T14:06:55.642Z,98530.03
2018-01-16T14:09:23.318Z,98531.60
2018-01-16T14:11:51.093Z,98538.09
2018-01-16T14:14:18.711Z,98541.06
2018-01-16T14:16:46.400Z,98533.70
2018-01-16T14:19:14.019Z,98539.00
2018-01-16T14:21:41.713Z,98546.87
2018-01-16T14:24:09.347Z,98545.70
2018-01-16T14:26:37.015Z,98542.58
2018-01-16T14:29:04.622Z,98546.19
2018-01-16T14:31:32.313Z,98551.23
2018-01-16T14:33:59.980Z,98558.13
2018-01-16T14:36:27.641Z,98564.55
2018-01-16T14:38:55.332Z,98563.92
2018-01-16T14:41:22.999Z,98565.05
2018-01-16T14:43:50.804Z,98569.76
2018-01-16T14:46:18.480Z,98566.06
2018-01-16T14:48:46.092Z,98567.37
2018-01-16T14:51:13.774Z,98563.91
2018-01-16T14:53:41.398Z,98571.45
2018-01-16T14:56:09.083Z,98573.48
2018-01-16T14:58:36.714Z,98581.06
2018-01-16T15:01:04.393Z,98580.34
2018-01-16T15:03:32.030Z,98572.33
2018-01-16T15:05:59.717Z,98574.92
2018-01-16T15:08:27.369Z,98582.22
2018-01-16T15:10:55.068Z,98583.41
2018-01-16T15:13:22.712Z,98594.00
2018-01-16T15:15:50.471Z,98599.45
2018-01-16T15:18:18.097Z,98593.09
2018-01-16T15:20:45.821Z,98608.00
2018-01-16T15:23:13.443Z,98613.36
2018-01-16T15:25:41.058Z,98617.90
2018-01-16T15:28:08.747Z,98625.69
2018-01-16T15:30:36.388Z,98623.67
2018-01-16T15:33:04.068Z,98640.42
2018-01-16T15:35:31.697Z,98653.39
2018-01-16T15:37:59.463Z,98662.20
2018-01-16T15:40:27.079Z,98660.10
2018-01-16T15:42:54.782Z,98661.94
2018-01-16T15:45:22.478Z,98656.25
2018-01-16T15:47:50.212Z,98666.09
2018-01-16T15:50:17.907Z,98664.83
2018-01-16T15:52:45.575Z,98668.70
2018-01-16T15:55:13.273Z,98674.34
2018-01-16T15:57:40.967Z,98665.94
2018-01-16T16:00:08.590Z,98663.64
2018-01-16T16:02:36.310Z,98672.36
2018-01-16T16:05:04.037Z,98660.07
2018-01-16T16:07:31.708Z,98666.04
2018-01-16T16:09:59.348Z,98669.27
2018-01-16T16:12:27.008Z,98662.67
2018-01-16T16:14:54.631Z,98663.98
2018-01-16T16:17:22.333Z,98664.20
2018-01-16T16:19:50.001Z,98666.61
2018-01-16T16:22:17.746Z,98656.84
2018-01-16T16:24:45.403Z,98658.16
2018-01-16T16:27:13.099Z,98659.68
2018-01-16T16:29:40.817Z,98652.58
2018-01-16T16:32:08.558Z,98657.06
2018-01-16T16:34:36.227Z,98658.92
2018-01-16T16:37:03.900Z,98664.80
2018-01-16T16:39:31.587Z,98670.58
2018-01-16T16:41:59.264Z,98674.59
2018-01-16T16:44:26.894Z,98675.63
2018-01-16T16:46:54.577Z,98678.58
2018-01-16T16:49:22.264Z,98682.68
2018-01-16T16:51:49.938Z,98682.20
2018-01-16T16:54:17.642Z,98681.52
2018-01-16T16:56:45.436Z,98678.71
2018-01-16T16:59:13.137Z,98681.69
2018-01-16T17:01:40.923Z,98686.80
2018-01-16T17:04:08.602Z,98682.93
2018-01-16T17:06:36.332Z,98695.73
2018-01-16T17:09:04.091Z,98700.43
2018-01-16T17:11:31.778Z,98699.80
2018-01-16T17:13:59.509Z,98700.28
2018-01-16T17:16:27.140Z,98711.75
2018-01-16T17:18:54.805Z,98714.66
2018-01-16T17:21:22.506Z,98712.11
2018-01-16T17:23:50.170Z,98719.05
2018-01-16T17:26:17.868Z,98719.74
2018-01-16T17:28:45.530Z,98718.45
2018-01-16T17:31:13.172Z,98726.80
2018-01-16T17:33:40.853Z,98727.11
2018-01-16T17:36:08.526Z,98715.02
2018-01-16T17:38:36.224Z,98723.25
2018-01-16T17:41:03.843Z,98715.76
2018-01-16T17:43:31.499Z,98712.06
2018-01-16T17:45:59.133Z,98715.72
2018-01-16T17:48:26.813Z,98721.83
2018-01-16T17:50:54.480Z,98721.77
2018-01-16T17:53:22.158Z,98719.42
2018-01-16T17:55:49.785Z,98720.32
2018-01-16T17:58:17.549Z,98729.57
2018-01-16T18:00:45.156Z,98726.84
2018-01-16T18:03:12.907Z,98725.58
2018-01-16T18:05:40.599Z,98723.20
2018-01-16T18:08:08.926Z,98731.97
2018-01-16T18:10:36.599Z,98738.02
2018-01-16T18:13:04.359Z,98740.03
2018-01-16T18:15:31.990Z,98739.89
2018-01-16T18:17:59.657Z,98745.38
2018-01-16T18:20:27.306Z,98756.09
2018-01-16T18:22:55.014Z,98752.53
2018-01-16T18:25:22.694Z,98746.62
2018-01-16T18:27:50.424Z,98745.17
2018-01-16T18:30:18.045Z,98743.39
2018-01-16T18:32:45.735Z,98754.38
2018-01-16T18:35:13.356Z,98753.89
2018-01-16T18:37:41.128Z,98753.15
2018-01-16T18:40:08.831Z,98762.20
2018-01-16T18:42:36.468Z,98767.98
2018-01-16T18:45:04.238Z,98771.06
2018-01-16T18:47:31.914Z,98774.70
2018-01-16T18:49:59.743Z,98768.31
2018-01-16T18:52:27.439Z,98770.87
2018-01-16T18:54:55.333Z,98768.11
2018-01-16T18:57:22.951Z,98769.77
2018-01-16T18:59:50.667Z,98772.77
2018-01-16T19:02:18.308Z,98780.27
2018-01-16T19:04:45.977Z,98786.09
2018-01-16T19:07:13.595Z,98783.91
2018-01-16T19:09:41.262Z,98786.98
2018-01-16T19:12:08.949Z,98788.91
2018-01-16T19:14:36.630Z,98786.31
2018-01-16T19:17:04.279Z,98794.32
2018-01-16T19:19:31.948Z,98793.59
2018-01-16T19:21:59.585Z,98791.58
2018-01-16T19:24:27.271Z,98787.19
2018-01-16T19:26:54.894Z,98778.88
2018-01-16T19:29:22.644Z,98781.72
2018-01-16T19:31:50.283Z,98779.94
2018-01-16T19:34:17.978Z,98782.61
2018-01-16T19:36:45.624Z,98784.80
2018-01-16T19:39:13.293Z,98778.42
2018-01-16T19:41:40.928Z,98783.45
2018-01-16T19:44:08.626Z,98781.70
2018-01-16T19:46:36.247Z,98779.09
2018-01-16T19:49:03.961Z,98779.09
2018-01-16T19:51:31.610Z,98780.55
2018-01-16T19:53:59.292Z,98774.98
2018-01-16T19:56:26.921Z,98778.47
2018-01-16T19:58:54.666Z,98780.70
2018-01-16T20:01:22.323Z,98781.52
2018-01-16T20:03:50.048Z,98782.82
2018-01-16T20:06:17.724Z,98785.08
2018-01-16T20:08:45.497Z,98783.45
2018-01-16T20:11:13.210Z,98789.40
2018-01-16T20:13:40.920Z,98784.39
2018-01-16T20:16:08.642Z,98782.14
2018-01-16T20:18:36.411Z,98783.84
2018-01-16T20:21:04.076Z,98787.48
2018-01-16T20:23:31.826Z,98795.09
2018-01-16T20:25:59.508Z,98798.06
2018-01-16T20:28:27.218Z,98794.02
2018-01-16T20:30:55.864Z,98795.30
2018-01-16T20:33:23.608Z,98790.92
2018-01-16T20:35:51.273Z,98788.83
2018-01-16T20:38:19.030Z,98789.94
2018-01-16T20:40:46.686Z,98783.74
2018-01-16T20:43:14.432Z,98781.20
2018-01-16T20:45:42.105Z,98781.20
2018-01-16T20:48:09.802Z,98781.77
2018-01-16T20:50:37.535Z,98776.83
2018-01-16T20:53:05.236Z,98778.75
2018-01-16T20:55:33.029Z,98786.14
2018-01-16T20:58:00.744Z,98795.05
2018-01-16T21:00:28.480Z,98797.92
2018-01-16T21:02:56.219Z,98799.14
2018-01-16T21:05:23.953Z,98796.75
2018-01-16T21:07:51.680Z,98794.52
2018-01-16T21:10:19.404Z,98794.22
2018-01-16T21:12:47.146Z,98796.15
2018-01-16T21:15:14.855Z,98793.40
2018-01-16T21:17:42.548Z,98787.01
2018-01-16T21:20:10.274Z,98787.41
2018-01-16T21:22:37.901Z,98782.54
2018-01-16T21:25:05.699Z,98774.05
2018-01-16T21:27:33.448Z,98780.91
2018-01-16T21:30:01.234Z,98783.98
2018-01-16T21:32:28.921Z,98782.09
2018-01-16T21:34:56.712Z,98789.02
2018-01-16T21:37:24.328Z,98786.98
2018-01-16T21:39:52.107Z,98782.04
2018-01-16T21:42:19.783Z,98785.81
2018-01-16T21:44:47.508Z,98788.81
2018-01-16T21:47:15.192Z,98783.82
2018-01-16T21:49:42.914Z,98793.63
2018-01-16T21:52:10.558Z,98790.41
2018-01-16T21:54:38.230Z,98794.14
2018-01-16T21:57:05.979Z,98793.61
2018-01-16T21:59:33.669Z,98788.67
2018-01-16T22:02:01.417Z,98780.44
2018-01-16T22:04:29.125Z,98787.01
2018-01-16T22:06:56.978Z,98787.97
2018-01-16T22:09:24.660Z,98791.02
2018-01-16T22:11:52.352Z,98794.02
2018-01-16T22:14:20.019Z,98791.30
2018-01-16T22:16:47.710Z,98799.53
2018-01-16T22:19:15.350Z,98799.32
2018-01-16T22:21:43.015Z,98801.80
2018-01-16T22:24:10.716Z,98800.14
2018-01-16T22:26:38.393Z,98794.38
2018-01-16T22:29:06.082Z,98795.05
2018-01-16T22:31:33.846Z,98788.07
2018-01-16T22:34:01.566Z,98792.26
2018-01-16T22:36:29.337Z,98789.13
2018-01-16T22:38:57.044Z,98782.91
2018-01-16T22:41:24.757Z,98785.72
2018-01-16T22:43:52.377Z,98785.39
2018-01-16T22:46:20.098Z,98795.27
2018-01-16T22:48:47.722Z,98788.07
2018-01-16T22:51:15.402Z,98785.66
2018-01-16T22:53:43.097Z,98788.14
2018-01-16T22:56:10.765Z,98783.77
2018-01-16T22:58:38.392Z,98784.04
2018-01-16T23:01:06.067Z,98787.41
2018-01-16T23:03:33.692Z,98791.12
2018-01-16T23:06:01.488Z,98790.16
2018-01-16T23:08:29.119Z,98785.27
2018-01-16T23:10:56.795Z,98791.75
2018-01-16T23:13:24.488Z,98791.83
2018-01-16T23:15:52.221Z,98782.41
2018-01-16T23:18:19.850Z,98786.77
2018-01-16T23:20:47.504Z,98791.36
2018-01-16T23:23:15.128Z,98790.16
2018-01-16T23:25:42.791Z,98798.70
2018-01-16T23:28:10.417Z,98790.52
2018-01-16T23:30:38.092Z,98795.45
2018-01-16T23:33:05.720Z,98793.12
2018-01-16T23:35:33.455Z,98787.95
2018-01-16T23:38:01.087Z,98796.19
2018-01-16T23:40:28.752Z,98793.27
2018-01-16T23:42:56.377Z,98794.34
2018-01-16T23:45:24.068Z,98802.81
2018-01-16T23:47:51.736Z,98795.80
2018-01-16T23:50:19.424Z,98789.08
2018-01-16T23:52:47.081Z,98788.18
2018-01-16T23:55:14.703Z,98783.09
2018-01-16T23:57:42.455Z,98788.94
